createdAt,value
2023-05-22T00:01:39.187Z,48.28
2023-05-22T00:04:05.759Z,48.32
2023-05-22T00:06:34.108Z,48.17
2023-05-22T00:09:00.954Z,47.98
2023-05-22T00:11:27.629Z,48.03
2023-05-22T00:13:54.232Z,48.00
2023-05-22T00:16:21.056Z,47.99
2023-05-22T00:18:48.310Z,48.42
2023-05-22T00:21:15.088Z,48.36
2023-05-22T00:23:42.857Z,48.50
2023-05-22T00:26:09.458Z,48.60
2023-05-22T00:28:36.079Z,48.37
2023-05-22T00:31:03.223Z,48.48
2023-05-22T00:33:29.858Z,49.07
2023-05-22T00:35:56.501Z,48.88
2023-05-22T00:38:34.629Z,48.93
2023-05-22T00:41:02.241Z,48.70
2023-05-22T00:43:28.985Z,48.94
2023-05-22T00:45:56.080Z,48.52
2023-05-22T00:48:23.352Z,48.89
2023-05-22T00:50:51.103Z,48.58
2023-05-22T00:53:21.342Z,49.46
2023-05-22T00:55:48.685Z,49.23
2023-05-22T00:58:17.502Z,49.28
2023-05-22T01:00:45.381Z,49.30
2023-05-22T01:03:12.615Z,49.25
2023-05-22T01:05:41.155Z,49.47
2023-05-22T01:08:08.860Z,49.55
2023-05-22T01:10:38.329Z,49.48
2023-05-22T01:13:09.789Z,49.89
2023-05-22T01:15:47.584Z,49.73
2023-05-22T01:18:25.110Z,49.64
2023-05-22T01:21:13.492Z,49.96
2023-05-22T01:24:17.884Z,50.04
2023-05-22T01:27:20.352Z,50.25
2023-05-22T01:30:16.163Z,50.23
2023-05-22T01:32:50.603Z,50.07
2023-05-22T01:35:25.225Z,49.98
2023-05-22T01:37:56.884Z,49.58
2023-05-22T01:40:32.913Z,50.10
2023-05-22T01:43:06.776Z,49.89
2023-05-22T01:45:41.398Z,49.70
2023-05-22T01:48:14.364Z,49.74
2023-05-22T01:50:45.424Z,49.95
2023-05-22T01:53:21.384Z,50.04
2023-05-22T01:56:19.747Z,50.22
2023-05-22T01:59:35.859Z,50.49
2023-05-22T02:02:14.030Z,50.05
2023-05-22T02:04:53.830Z,50.19
2023-05-22T02:07:34.298Z,50.08
2023-05-22T02:10:09.806Z,50.23
2023-05-22T02:12:40.061Z,50.04
2023-05-22T02:15:20.901Z,49.89
2023-05-22T02:17:51.471Z,49.79
2023-05-22T02:20:21.444Z,49.70
2023-05-22T02:25:38.399Z,50.05
2023-05-22T02:28:10.265Z,49.47
2023-05-22T02:30:54.425Z,50.10
2023-05-22T02:33:26.261Z,49.84
2023-05-22T02:35:55.183Z,49.69
2023-05-22T02:38:31.492Z,49.67
2023-05-22T02:41:06.764Z,49.81
2023-05-22T02:43:49.848Z,49.85
2023-05-22T02:46:45.090Z,50.27
2023-05-22T02:49:31.740Z,50.22
2023-05-22T02:52:02.043Z,49.62
2023-05-22T02:55:17.071Z,50.30
2023-05-22T02:58:01.152Z,49.80
2023-05-22T03:00:56.833Z,49.91
2023-05-22T03:03:27.724Z,49.54
2023-05-22T03:06:07.519Z,49.64
2023-05-22T03:11:24.835Z,49.52
2023-05-22T03:14:00.554Z,50.20
2023-05-22T03:16:32.813Z,50.46
2023-05-22T03:19:25.242Z,50.18
2023-05-22T03:21:55.793Z,49.66
2023-05-22T03:27:08.204Z,49.68
2023-05-22T03:29:37.488Z,49.83
2023-05-22T03:34:59.284Z,49.80
2023-05-22T03:37:35.491Z,49.65
2023-05-22T03:40:15.856Z,49.66
2023-05-22T03:43:04.568Z,49.89
2023-05-22T03:45:36.727Z,49.52
2023-05-22T03:48:34.489Z,49.39
2023-05-22T03:51:03.543Z,49.49
2023-05-22T03:53:42.120Z,49.82
2023-05-22T03:56:14.105Z,49.76
2023-05-22T03:58:54.023Z,49.89
2023-05-22T04:01:31.658Z,49.66
2023-05-22T04:04:08.680Z,49.53
2023-05-22T04:06:50.606Z,49.90
2023-05-22T04:09:25.241Z,49.66
2023-05-22T04:12:16.831Z,50.18
2023-05-22T04:14:45.976Z,49.98
2023-05-22T04:17:27.892Z,49.79
2023-05-22T04:20:03.529Z,49.84
2023-05-22T04:22:43.896Z,50.10
2023-05-22T04:25:13.275Z,50.01
2023-05-22T04:27:52.167Z,50.03
2023-05-22T04:30:29.151Z,50.08
2023-05-22T04:32:59.606Z,49.96
2023-05-22T04:36:18.192Z,50.42
2023-05-22T04:38:52.966Z,50.24
2023-05-22T04:47:11.659Z,50.34
2023-05-22T04:49:54.191Z,50.72
2023-05-22T04:52:26.406Z,50.18
2023-05-22T04:55:00.664Z,50.12
2023-05-22T04:57:32.885Z,50.48
2023-05-22T05:03:33.529Z,50.58
2023-05-22T05:06:13.919Z,50.26
2023-05-22T05:09:19.090Z,50.32
2023-05-22T05:12:00.448Z,50.05
2023-05-22T05:17:40.972Z,49.84
2023-05-22T05:20:17.225Z,49.40
2023-05-22T05:22:48.620Z,49.60
2023-05-22T05:25:19.793Z,49.61
2023-05-22T05:28:00.335Z,49.82
2023-05-22T05:31:11.383Z,50.10
2023-05-22T05:33:58.015Z,49.94
2023-05-22T05:36:32.974Z,49.66
2023-05-22T05:39:09.398Z,49.95
2023-05-22T05:41:49.204Z,50.19
2023-05-22T05:44:27.247Z,49.80
2023-05-22T05:47:09.026Z,49.75
2023-05-22T05:52:26.243Z,49.85
2023-05-22T05:55:02.184Z,50.32
2023-05-22T05:57:41.057Z,49.88
2023-05-22T06:00:30.221Z,50.25
2023-05-22T06:03:03.297Z,50.00
2023-05-22T06:08:32.849Z,49.81
2023-05-22T06:11:12.676Z,50.32
2023-05-22T06:16:13.666Z,49.83
2023-05-22T06:18:40.782Z,50.08
2023-05-22T06:21:07.504Z,49.93
2023-05-22T06:23:34.114Z,50.12
2023-05-22T06:26:00.762Z,50.20
2023-05-22T06:28:27.383Z,49.86
2023-05-22T06:30:53.989Z,50.48
2023-05-22T06:33:21.273Z,50.00
2023-05-22T06:35:47.916Z,50.00
2023-05-22T06:38:14.500Z,50.19
2023-05-22T06:40:41.378Z,50.25
2023-05-22T06:43:08.105Z,50.29
2023-05-22T06:45:34.756Z,50.35
2023-05-22T06:48:01.435Z,50.42
2023-05-22T06:50:28.164Z,50.14
2023-05-22T06:52:54.813Z,50.14
2023-05-22T06:55:21.490Z,50.33
2023-05-22T06:57:48.017Z,50.14
2023-05-22T07:00:15.409Z,49.82
2023-05-22T07:02:42.141Z,49.67
2023-05-22T07:05:09.296Z,49.77
2023-05-22T07:07:35.979Z,49.44
2023-05-22T07:10:02.740Z,49.37
2023-05-22T07:12:29.746Z,49.25
2023-05-22T07:14:57.878Z,49.17
2023-05-22T07:17:24.582Z,49.37
2023-05-22T07:19:51.270Z,49.00
2023-05-22T07:22:20.635Z,49.27
2023-05-22T07:24:47.628Z,48.98
2023-05-22T07:27:14.287Z,49.08
2023-05-22T07:29:41.051Z,48.87
2023-05-22T07:32:08.561Z,48.82
2023-05-22T07:34:35.216Z,48.90
2023-05-22T07:37:09.023Z,48.96
2023-05-22T07:39:35.652Z,48.56
2023-05-22T07:42:03.158Z,48.70
2023-05-22T07:44:29.851Z,48.73
2023-05-22T07:46:57.182Z,48.61
2023-05-22T07:49:24.803Z,48.30
2023-05-22T07:51:51.663Z,48.45
2023-05-22T07:54:18.488Z,48.42
2023-05-22T07:56:46.055Z,48.71
2023-05-22T07:59:12.638Z,48.35
2023-05-22T08:01:40.405Z,48.25
2023-05-22T08:04:07.388Z,48.25
2023-05-22T08:06:37.394Z,48.14
2023-05-22T08:09:06.886Z,48.12
2023-05-22T08:11:34.223Z,48.08
2023-05-22T08:14:00.910Z,48.09
2023-05-22T08:16:27.604Z,48.03
2023-05-22T08:18:54.204Z,47.84
2023-05-22T08:21:21.038Z,48.07
2023-05-22T08:23:47.622Z,47.86
2023-05-22T08:26:15.115Z,47.98
2023-05-22T08:28:44.694Z,47.86
2023-05-22T08:31:12.035Z,47.95
2023-05-22T08:33:39.766Z,47.84
2023-05-22T08:36:06.587Z,48.05
2023-05-22T08:38:33.415Z,47.85
2023-05-22T08:41:00.268Z,47.83
2023-05-22T08:43:28.539Z,47.89
2023-05-22T08:46:03.280Z,47.70
2023-05-22T08:48:34.526Z,47.87
2023-05-22T08:51:06.201Z,47.75
2023-05-22T08:53:37.556Z,47.88
2023-05-22T08:56:08.585Z,47.81
2023-05-22T08:58:36.337Z,47.75
2023-05-22T09:01:04.499Z,47.70
2023-05-22T09:03:32.881Z,47.82
2023-05-22T09:06:00.403Z,47.69
2023-05-22T09:08:28.553Z,47.65
2023-05-22T09:10:56.272Z,47.72
2023-05-22T09:13:30.522Z,47.82
2023-05-22T09:16:07.877Z,47.65
2023-05-22T09:18:34.516Z,47.74
2023-05-22T09:21:03.704Z,47.82
2023-05-22T09:23:33.702Z,47.74
2023-05-22T09:26:01.916Z,47.70
2023-05-22T09:28:34.378Z,47.55
2023-05-22T09:31:04.159Z,47.70
2023-05-22T09:33:32.349Z,47.70
2023-05-22T09:35:59.652Z,47.82
2023-05-22T09:38:29.257Z,47.58
2023-05-22T09:40:56.852Z,48.08
2023-05-22T09:43:25.846Z,47.54
2023-05-22T09:46:01.886Z,47.66
2023-05-22T09:48:28.889Z,47.68
2023-05-22T09:50:56.133Z,47.61
2023-05-22T09:53:28.116Z,47.69
2023-05-22T09:55:59.983Z,47.77
2023-05-22T09:58:27.958Z,47.76
2023-05-22T10:00:58.384Z,47.79
2023-05-22T10:03:27.298Z,47.54
2023-05-22T10:05:56.494Z,47.48
2023-05-22T10:08:28.739Z,47.79
2023-05-22T10:10:55.935Z,47.81
2023-05-22T10:13:25.378Z,48.22
2023-05-22T10:15:53.279Z,47.88
2023-05-22T10:18:20.348Z,48.22
2023-05-22T10:20:47.345Z,48.25
2023-05-22T10:23:16.606Z,48.35
2023-05-22T10:25:44.673Z,48.42
2023-05-22T10:28:15.067Z,48.35
2023-05-22T10:30:51.293Z,48.57
2023-05-22T10:33:22.297Z,48.49
2023-05-22T10:36:04.006Z,48.43
2023-05-22T10:38:51.993Z,48.43
2023-05-22T10:41:18.934Z,48.31
2023-05-22T10:43:50.007Z,48.58
2023-05-22T10:46:17.971Z,48.37
2023-05-22T10:48:48.689Z,48.57
2023-05-22T10:51:19.413Z,48.69
2023-05-22T10:53:58.592Z,48.68
2023-05-22T10:56:33.237Z,48.95
2023-05-22T10:59:08.448Z,48.70
2023-05-22T11:01:38.386Z,48.69
2023-05-22T11:04:05.377Z,48.79
2023-05-22T11:06:46.059Z,48.72
2023-05-22T11:09:20.696Z,48.70
2023-05-22T11:12:08.252Z,48.68
2023-05-22T11:14:36.598Z,48.75
2023-05-22T11:17:03.357Z,48.49
2023-05-22T11:19:30.010Z,48.66
2023-05-22T11:22:00.569Z,48.80
2023-05-22T11:24:33.117Z,48.67
2023-05-22T11:27:08.948Z,48.76
2023-05-22T11:29:36.749Z,48.57
2023-05-22T11:32:03.760Z,48.85
2023-05-22T11:34:30.448Z,48.67
2023-05-22T11:37:01.553Z,48.69
2023-05-22T11:39:28.185Z,48.57
2023-05-22T11:41:55.130Z,48.49
2023-05-22T11:44:21.881Z,48.54
2023-05-22T11:46:48.696Z,48.53
2023-05-22T11:49:15.535Z,48.51
2023-05-22T11:51:42.260Z,48.61
2023-05-22T11:54:08.920Z,48.76
2023-05-22T11:56:35.511Z,48.62
2023-05-22T11:59:02.417Z,48.62
2023-05-22T12:01:29.059Z,48.64
2023-05-22T12:03:55.943Z,48.40
2023-05-22T12:06:22.778Z,48.48
2023-05-22T12:08:49.613Z,48.38
2023-05-22T12:11:16.745Z,48.48
2023-05-22T12:13:43.979Z,48.44
2023-05-22T12:16:22.061Z,48.55
2023-05-22T12:18:53.394Z,48.69
2023-05-22T12:21:20.795Z,48.51
2023-05-22T12:23:51.630Z,48.54
2023-05-22T12:26:18.383Z,48.54
2023-05-22T12:28:45.056Z,48.57
2023-05-22T12:31:11.712Z,48.31
2023-05-22T12:33:39.689Z,48.51
2023-05-22T12:36:10.448Z,48.73
2023-05-22T12:38:39.306Z,48.38
2023-05-22T12:41:06.011Z,48.41
2023-05-22T12:43:32.927Z,48.52
2023-05-22T12:46:01.042Z,48.59
2023-05-22T18:36:45.199Z,46.63
2023-05-22T18:39:12.461Z,46.62
2023-05-22T18:41:39.140Z,46.50
2023-05-22T18:44:05.823Z,46.94
2023-05-22T18:46:32.514Z,46.82
2023-05-22T18:49:00.327Z,46.86
2023-05-22T18:51:27.019Z,47.07
2023-05-22T18:53:53.664Z,46.78
2023-05-22T18:56:20.503Z,46.47
2023-05-22T18:58:47.140Z,46.57
2023-05-22T19:01:13.813Z,46.48
2023-05-22T19:03:41.109Z,46.68
2023-05-22T19:06:08.216Z,46.49
2023-05-22T19:08:34.847Z,46.30
2023-05-22T19:11:01.610Z,46.05
2023-05-22T19:13:29.247Z,46.54
2023-05-22T19:15:57.316Z,46.13
2023-05-22T19:18:24.711Z,46.24
2023-05-22T19:20:51.400Z,46.22
2023-05-22T19:23:18.672Z,46.20
2023-05-22T19:25:45.239Z,46.31
2023-05-22T19:28:11.822Z,46.17
2023-05-22T19:30:38.532Z,46.22
2023-05-22T19:33:07.914Z,46.13
2023-05-22T19:35:35.596Z,46.34
2023-05-22T19:38:02.246Z,46.46
2023-05-22T19:40:28.855Z,46.45
2023-05-22T19:42:55.585Z,46.33
2023-05-22T19:45:22.210Z,46.27
2023-05-22T19:47:48.885Z,46.40
2023-05-22T19:50:15.621Z,46.43
2023-05-22T19:52:42.299Z,46.45
2023-05-22T19:55:10.342Z,46.45
2023-05-22T19:57:37.254Z,46.23
2023-05-22T20:00:07.717Z,46.25
2023-05-22T20:02:34.382Z,46.41
2023-05-22T20:05:01.815Z,46.20
2023-05-22T20:07:28.853Z,46.09
2023-05-22T20:09:55.500Z,46.32
2023-05-22T20:12:22.104Z,46.26
2023-05-22T20:14:48.707Z,46.02
2023-05-22T20:17:15.455Z,46.08
2023-05-22T20:19:44.974Z,45.88
2023-05-22T20:22:11.625Z,45.86
2023-05-22T20:24:38.163Z,46.20
2023-05-22T20:27:06.358Z,45.84
2023-05-22T20:29:33.194Z,45.97
2023-05-22T20:31:59.829Z,45.91
2023-05-22T20:34:26.761Z,46.06
2023-05-22T20:36:54.177Z,46.25
2023-05-22T20:39:22.266Z,46.11
2023-05-22T20:41:51.713Z,46.33
2023-05-22T20:44:18.665Z,46.03
2023-05-22T20:46:45.416Z,46.26
2023-05-22T20:49:12.444Z,46.34
2023-05-22T20:51:39.397Z,46.32
2023-05-22T20:54:06.231Z,46.24
2023-05-22T20:56:32.840Z,46.22
2023-05-22T20:58:59.412Z,46.09
2023-05-22T21:01:26.018Z,46.26
2023-05-22T21:03:54.553Z,46.19
2023-05-22T21:06:21.244Z,46.33
2023-05-22T21:08:47.929Z,46.21
2023-05-22T21:11:14.766Z,46.25
2023-05-22T21:13:41.389Z,46.18
2023-05-22T21:16:08.184Z,46.25
2023-05-22T21:18:35.013Z,46.02
2023-05-22T21:21:01.762Z,46.35
2023-05-22T21:23:28.348Z,46.03
2023-05-22T21:25:54.999Z,46.10
2023-05-22T21:28:21.607Z,46.31
2023-05-22T21:30:48.202Z,46.25
2023-05-22T21:33:14.865Z,46.36
2023-05-22T21:35:41.550Z,46.43
2023-05-22T21:38:08.181Z,46.25
2023-05-22T21:40:34.826Z,46.21
2023-05-22T21:43:01.584Z,46.11
2023-05-22T21:45:28.164Z,46.27
2023-05-22T21:47:54.836Z,46.04
2023-05-22T21:50:21.498Z,46.09
2023-05-22T21:52:48.148Z,46.50
2023-05-22T21:55:14.798Z,46.44
2023-05-22T21:57:41.371Z,46.61
2023-05-22T22:00:08.536Z,46.50
2023-05-22T22:02:35.166Z,46.41
2023-05-22T22:05:01.945Z,46.49
2023-05-22T22:07:28.529Z,46.35
2023-05-22T22:09:55.287Z,46.65
2023-05-22T22:12:21.892Z,46.57
2023-05-22T22:14:48.452Z,46.57
2023-05-22T22:17:16.743Z,46.46
2023-05-22T22:19:44.507Z,46.66
2023-05-22T22:22:12.515Z,46.75
2023-05-22T22:24:39.187Z,46.83
2023-05-22T22:27:06.126Z,46.62
2023-05-22T22:29:32.772Z,46.59
2023-05-22T22:31:59.335Z,46.84
2023-05-22T22:34:26.074Z,46.68
2023-05-22T22:36:52.700Z,46.87
2023-05-22T22:39:19.281Z,46.41
2023-05-22T22:41:45.895Z,46.75
2023-05-22T22:44:12.491Z,46.47
2023-05-22T22:46:39.204Z,46.65
2023-05-22T22:49:05.888Z,46.60
2023-05-22T22:51:32.571Z,46.53
2023-05-22T22:53:59.189Z,46.26
2023-05-22T22:56:29.435Z,46.72
2023-05-22T22:58:57.388Z,46.76
2023-05-22T23:01:24.549Z,46.79
2023-05-22T23:03:51.639Z,46.67
2023-05-22T23:06:18.475Z,46.76
2023-05-22T23:08:45.665Z,46.81
2023-05-22T23:11:12.299Z,46.62
2023-05-22T23:13:41.078Z,46.70
2023-05-22T23:16:08.070Z,46.74
2023-05-22T23:18:34.909Z,46.84
2023-05-22T23:21:01.464Z,46.74
2023-05-22T23:23:28.120Z,46.69
2023-05-22T23:25:56.080Z,46.81
2023-05-22T23:28:23.933Z,46.99
2023-05-22T23:30:51.818Z,46.65
2023-05-22T23:33:18.502Z,46.96
2023-05-22T23:35:45.416Z,46.93
2023-05-22T23:38:11.999Z,47.08
2023-05-22T23:40:38.636Z,47.26
2023-05-22T23:43:05.210Z,47.20
2023-05-22T23:45:32.055Z,47.15
2023-05-22T23:47:58.658Z,47.00
2023-05-22T23:50:25.322Z,47.05
2023-05-22T23:52:51.969Z,47.12
2023-05-22T23:55:18.632Z,47.12
2023-05-22T23:57:45.291Z,47.01
